Latest Coastal Weather Observations for McCluer Island

IDD60701

Issued at 6:01 am CST Friday 31 March 2017 (issued every 10 minutes, with the page automatically refreshed every 10 minutes)

About coastal observations | Map of coastal stations | Coastal observations for NT | Marine services | Other Formats
Station Details ID: 014274 Name: MCCLUER ISLAND Lat: -11.05 Lon: 132.98 Height: 1.4 m
Data from the previous 72 hours. | See also: Recent months at McCluer Island
Date/Time
CST
Temp
°C
Wind Pressure Rain since
9am
mm
Weather Cloud Vis
km
Sea
Height
m
Swell
Dir  Spd
kts
Gust
kts
hPa Trend Height
m
Period
s
Dir
31/06:00am 28.9 NW 8 10 1008.6 - 0.0 - - - - - - -
31/05:30am 29.0 NW 9 11 1008.3 - 0.0 - - - - - - -
31/05:00am 28.9 NNW 10 12 1008.0 - 0.0 - - - - - - -
31/04:30am 28.8 NNW 9 11 1007.8 - 0.0 - - - - - - -
31/04:00am 28.7 NW 9 11 1008.0 - 0.0 - - - - - - -
31/03:30am 28.7 NW 8 10 1008.3 - 0.0 - - - - - - -
31/03:00am 28.8 WNW 8 9 1008.4 - 0.0 - - - - - - -
31/02:30am 28.7 WNW 7 9 1008.3 - 0.0 - - - - - - -
31/02:00am 28.7 W 6 7 1008.5 - 0.0 - - - - - - -
31/01:30am 28.7 W 7 8 1008.8 - 0.0 - - - - - - -
31/01:00am 28.7 WNW 8 9 1009.6 - 0.0 - - - - - - -
31/12:30am 28.9 W 7 9 1009.8 - 0.0 - - - - - - -
31/12:00am 28.8 W 8 11 1009.9 - 0.0 - - - - - - -
 
Date/Time
CST
Temp
°C
Wind Pressure Rain since
9am
mm
Weather Cloud Vis
km
Sea
Height
m
Swell
Dir  Spd
kts
Gust
kts
hPa Trend Height
m
Period
s
Dir
30/11:30pm 28.8 W 9 11 1009.9 - 0.0 - - - - - - -
30/11:00pm 28.9 W 9 11 1010.1 - 0.0 - - - - - - -
30/10:30pm 28.8 W 9 12 1010.2 - 0.0 - - - - - - -
30/10:00pm 28.9 W 9 11 1010.1 - 0.0 - - - - - - -
30/09:30pm 28.9 W 10 11 1009.7 - 0.0 - - - - - - -
30/09:00pm 28.9 W 10 11 1009.2 - 0.0 - - - - - - -
30/08:30pm 28.9 W 9 11 1008.5 - 0.0 - - - - - - -
30/08:00pm 28.8 WNW 11 13 1008.2 - 0.0 - - - - - - -
30/07:30pm 29.0 WNW 11 13 1008.0 - 0.0 - - - - - - -
30/07:00pm 29.0 WNW 12 14 1007.6 - 0.0 - - - - - - -
30/06:30pm 29.3 WNW 8 10 1007.5 - 0.0 - - - - - - -
30/06:00pm 29.9 WNW 8 9 1007.2 - 0.0 - - - - - - -
30/05:30pm 30.4 WNW 8 9 1007.1 - 0.0 - - - - - - -
30/05:00pm 30.5 WNW 8 10 1007.3 - 0.0 - - - - - - -
30/04:30pm 30.2 WNW 9 11 1007.4 - 0.0 - - - - - - -
30/04:00pm 30.7 WNW 8 9 1007.4 - 0.0 - - - - - - -
30/03:30pm 31.0 W 7 8 1007.6 - 0.0 - - - - - - -
30/03:00pm 31.2 W 6 8 1007.7 - 0.0 - - - - - - -
30/02:30pm 30.3 W 5 7 1008.2 - 0.0 - - - - - - -
30/02:00pm 30.3 WSW 7 8 1008.5 - 0.0 - - - - - - -
30/01:30pm 30.1 WSW 8 10 1008.7 - 0.0 - - - - - - -
30/01:00pm 30.0 WSW 7 9 1009.1 - 0.0 - - - - - - -
30/12:30pm 30.0 WSW 6 8 1009.3 - 0.0 - - - - - - -
30/12:00pm 31.0 WSW 6 8 1009.5 - 0.0 - - - - - - -
30/11:30am 29.9 SW 7 10 1009.7 - 0.0 - - - - - - -
30/11:00am 29.4 WSW 9 11 1010.0 - 0.0 - - - - - - -
30/10:30am 29.4 W 7 9 1010.3 - 0.0 - - - - - - -
30/10:00am 29.5 WNW 7 9 1010.3 - 0.0 - - - - - - -
30/09:30am 29.9 WNW 6 7 1010.0 - 0.0 - - - - - - -
30/09:00am 29.1 WNW 6 7 1009.6 - 4.8 - - - - - - -
30/08:30am 29.0 W 8 9 1009.4 - 4.8 - - - - - - -
30/08:00am 28.6 WSW 8 10 1008.9 - 4.8 - - - - - - -
30/07:30am 28.4 WSW 10 12 1008.8 - 4.8 - - - - - - -
30/07:00am 28.6 WSW 15 17 1008.6 - 4.8 - - - - - - -
30/06:30am 28.2 WSW 14 17 1008.6 - 4.8 - - - - - - -
30/06:00am 28.0 W 13 17 1008.0 - 4.8 - - - - - - -
30/05:30am 27.7 W 9 12 1007.9 - 4.8 - - - - - - -
30/05:00am 27.5 W 8 11 1007.5 - 4.8 - - - - - - -
30/04:30am 27.1 W 11 13 1007.4 - 4.8 - - - - - - -
30/04:00am 27.2 W 12 16 1008.0 - 4.8 - - - - - - -
30/03:30am 26.7 W 15 19 1008.1 - 4.8 - - - - - - -
30/03:00am 26.5 W 15 19 1008.6 - 4.8 - - - - - - -
30/02:30am 25.8 W 14 17 1009.3 - 4.6 - - - - - - -
30/02:00am 26.0 WSW 8 11 1010.3 - 4.4 - - - - - - -
30/01:30am 25.4 SW 3 4 1010.4 - 3.8 - - - - - - -
30/01:00am 25.6 SSE 3 4 1010.2 - 3.6 - - - - - - -
30/12:30am 25.5 S 7 10 1010.1 - 3.4 - - - - - - -
30/12:00am 25.9 SW 8 11 1010.0 - 3.4 - - - - - - -
 
Date/Time
CST
Temp
°C
Wind Pressure Rain since
9am
mm
Weather Cloud Vis
km
Sea
Height
m
Swell
Dir  Spd
kts
Gust
kts
hPa Trend Height
m
Period
s
Dir
29/11:41pm 26.0 SW 15 20 1010.4 - 3.4 - - - - - - -
29/11:30pm 26.6 WSW 8 10 1010.3 - 3.0 - - - - - - -
29/11:00pm 26.3 E 5 8 1010.8 - 1.8 - - - - - - -
29/10:30pm 28.0 ESE 10 15 1011.0 - 0.2 - - - - - - -
29/10:00pm 28.4 WNW 11 13 1010.5 - 0.0 - - - - - - -
29/09:30pm 28.7 NW 11 13 1010.3 - 0.0 - - - - - - -
29/09:00pm 28.4 NNW 12 15 1010.2 - 0.0 - - - - - - -
29/08:30pm 28.4 NW 13 16 1009.4 - 0.0 - - - - - - -
29/08:00pm 28.2 NW 16 19 1008.8 - 0.0 - - - - - - -
29/07:30pm 28.0 NW 15 19 1008.6 - 0.0 - - - - - - -
29/07:00pm 27.6 NNW 17 21 1007.8 - 0.0 - - - - - - -
29/06:30pm 27.6 NNW 16 20 1007.7 - 0.0 - - - - - - -
29/06:00pm 27.2 NW 14 17 1007.7 - 0.0 - - - - - - -
29/05:30pm 27.3 NNW 16 18 1006.7 - 0.0 - - - - - - -
29/05:00pm 27.0 NNW 19 23 1006.5 - 0.0 - - - - - - -
29/04:30pm 27.0 NNW 18 20 1007.1 - 0.0 - - - - - - -
29/04:00pm 27.2 NNW 18 23 1007.2 - 0.0 - - - - - - -
29/03:30pm 26.9 NNW 20 23 1007.0 - 0.0 - - - - - - -
29/03:00pm 26.9 NNW 19 21 1007.0 - 0.0 - - - - - - -
29/02:30pm 27.0 N 18 21 1008.1 - 0.0 - - - - - - -
29/02:00pm 30.0 WNW 13 16 1008.4 - 0.0 - - - - - - -
29/01:30pm 30.1 W 12 15 1008.3 - 0.0 - - - - - - -
29/01:00pm 29.9 W 13 16 1008.6 - 0.0 - - - - - - -
29/12:30pm 29.7 W 15 18 1008.8 - 0.0 - - - - - - -
29/12:00pm 29.8 W 15 18 1008.9 - 0.0 - - - - - - -
29/11:30am 29.6 W 12 17 1008.5 - 0.0 - - - - - - -
29/11:00am 29.5 W 13 17 1009.2 - 0.0 - - - - - - -
29/10:30am 29.5 W 16 19 1009.0 - 0.0 - - - - - - -
29/10:00am 29.6 W 17 23 1008.8 - 0.0 - - - - - - -
29/09:30am 29.4 W 19 24 1008.8 - 0.0 - - - - - - -
29/09:00am 29.3 W 17 23 1008.8 - 0.0 - - - - - - -
29/08:30am 29.5 W 17 22 1008.6 - 0.0 - - - - - - -
29/08:00am 29.3 W 19 23 1007.8 - 0.0 - - - - - - -
29/07:30am 29.3 W 17 21 1007.8 - 0.0 - - - - - - -
29/07:00am 29.0 W 18 22 1007.9 - 0.0 - - - - - - -
29/06:30am 29.0 W 16 20 1007.6 - 0.0 - - - - - - -
29/06:00am 29.0 W 15 19 1007.6 - 0.0 - - - - - - -
29/05:30am 29.0 W 16 21 1007.1 - 0.0 - - - - - - -
29/05:00am 29.1 W 15 19 1007.1 - 0.0 - - - - - - -
29/04:30am 29.1 W 16 19 1007.3 - 0.0 - - - - - - -
29/04:00am 29.3 W 15 19 1007.2 - 0.0 - - - - - - -
29/03:30am 29.2 W 14 18 1007.2 - 0.0 - - - - - - -
29/03:00am 29.5 W 16 20 1007.3 - 0.0 - - - - - - -
29/02:30am 29.4 WNW 17 19 1007.2 - 0.0 - - - - - - -
29/02:00am 29.5 WNW 16 18 1007.4 - 0.0 - - - - - - -
29/01:30am 29.5 WNW 16 19 1007.6 - 0.0 - - - - - - -
29/01:00am 29.5 WNW 16 19 1007.9 - 0.0 - - - - - - -
29/12:30am 29.5 WNW 15 18 1008.3 - 0.0 - - - - - - -
29/12:00am 29.5 WNW 16 19 1008.4 - 0.0 - - - - - - -
 
Date/Time
CST
Temp
°C
Wind Pressure Rain since
9am
mm
Weather Cloud Vis
km
Sea
Height
m
Swell
Dir  Spd
kts
Gust
kts
hPa Trend Height
m
Period
s
Dir
28/11:30pm 29.6 WNW 17 19 1008.4 - 0.0 - - - - - - -
28/11:00pm 29.4 WNW 16 19 1008.4 - 0.0 - - - - - - -
28/10:30pm 29.6 WNW 15 17 1008.4 - 0.0 - - - - - - -
28/10:00pm 29.7 WNW 14 16 1008.4 - 0.0 - - - - - - -
28/09:30pm 29.8 WNW 13 15 1008.1 - 0.0 - - - - - - -
28/09:00pm 30.8 W 7 11 1008.1 - 0.0 - - - - - - -
28/08:30pm 29.1 W 6 8 1007.9 - 0.0 - - - - - - -
28/08:00pm 31.0 W 8 10 1007.5 - 0.0 - - - - - - -
28/07:30pm 30.6 WSW 9 11 1007.0 - 0.0 - - - - - - -
28/07:00pm 30.5 WSW 11 12 1006.4 - 0.0 - - - - - - -
28/06:30pm 30.6 SW 12 15 1005.9 - 0.0 - - - - - - -
28/06:00pm 30.7 SW 15 18 1005.5 - 0.0 - - - - - - -
28/05:30pm 31.1 SW 14 19 1005.3 - 0.0 - - - - - - -
28/05:00pm 31.3 SW 15 19 1005.5 - 0.0 - - - - - - -
28/04:30pm 31.3 SW 16 19 1005.7 - 0.0 - - - - - - -
28/04:00pm 32.0 SW 15 19 1005.9 - 0.0 - - - - - - -
28/03:30pm 32.4 WSW 11 14 1006.1 - 0.0 - - - - - - -
28/03:00pm 32.0 W 14 16 1006.3 - 0.0 - - - - - - -
28/02:30pm 31.8 W 14 18 1006.6 - 0.0 - - - - - - -
28/02:00pm 30.4 W 17 20 1007.0 - 0.0 - - - - - - -
28/01:30pm 30.7 W 14 18 1007.6 - 0.0 - - - - - - -
28/01:00pm 31.2 W 15 19 1008.1 - 0.0 - - - - - - -
28/12:30pm 32.1 W 12 16 1008.8 - 0.0 - - - - - - -
28/12:00pm 31.4 W 14 18 1009.2 - 0.0 - - - - - - -
28/11:30am 31.3 W 14 17 1009.5 - 0.0 - - - - - - -
28/11:00am 30.7 W 16 19 1009.7 - 0.0 - - - - - - -
28/10:30am 30.5 W 15 18 1009.9 - 0.0 - - - - - - -
28/10:00am 30.0 WSW 12 15 1010.2 - 0.0 - - - - - - -
28/09:30am 29.7 W 13 16 1010.1 - 0.0 - - - - - - -
28/09:00am 29.6 W 14 19 1010.1 - 0.0 - - - - - - -
28/08:30am 29.5 W 13 17 1010.0 - 0.0 - - - - - - -
28/08:00am 29.6 W 13 17 1009.7 - 0.0 - - - - - - -
28/07:30am 28.9 W 14 17 1009.5 - 0.0 - - - - - - -
28/07:00am 28.6 W 17 21 1008.9 - 0.0 - - - - - - -
28/06:30am 28.5 W 14 17 1009.1 - 0.0 - - - - - - -

Other Formats:

Comma delimited format used in spreadsheet applications
http://www.bom.gov.au/fwo/IDD60701/IDD60701.94135.axf

JavaScript Object Notation format (JSON) in row-major order
http://www.bom.gov.au/fwo/IDD60701/IDD60701.94135.json